Time;durP1;ratioP1;P1;durP2;ratioP2;P2;SDS_P1;SDS_P2;PMS_P1;PMS_P2;Temp;Humidity;BMP_temperature;BMP_pressure;BME280_temperature;BME280_humidity;BME280_pressure;Samples;Min_cycle;Max_cycle;Signal;HPM_P1;HPM_P2
2021/12/12 00:02:10;;;;;;;8.15;3.50;;;;;;;14.66;54.20;101948.66;5084853;28;20016;-60
2021/12/12 00:04:39;;;;;;;7.63;3.45;;;;;;;14.64;53.88;101948.66;5084793;28;20024;-61
2021/12/12 00:07:12;;;;;;;7.32;3.63;;;;;;;14.59;54.12;101940.03;5082608;28;20111;-60
2021/12/12 00:09:45;;;;;;;8.38;3.58;;;;;;;14.59;54.31;101950.47;5082643;28;20016;-58
2021/12/12 00:12:16;;;;;;;8.23;3.50;;;;;;;14.55;54.29;101930.50;5083347;28;20032;-60
2021/12/12 00:14:43;;;;;;;9.60;3.75;;;;;;;14.58;54.13;101940.06;5083099;28;20024;-60
2021/12/12 00:17:10;;;;;;;8.93;3.58;;;;;;;14.55;54.55;101933.13;5084266;28;20482;-60
2021/12/12 00:19:36;;;;;;;8.55;3.50;;;;;;;14.58;54.57;101942.69;5084508;28;20032;-60
2021/12/12 00:22:03;;;;;;;;;;;;;;;14.67;54.07;101942.56;5083043;28;20028;-59
2021/12/12 00:24:30;;;;;;;7.47;3.40;;;;;;;14.56;54.44;101936.59;5083871;28;19912;-60
2021/12/12 00:26:57;;;;;;;7.65;3.20;;;;;;;14.55;54.29;101929.66;5083780;28;20078;-60
2021/12/12 00:29:24;;;;;;;6.22;3.20;;;;;;;14.55;54.30;101935.72;5082717;28;20025;-60
2021/12/12 00:31:53;;;;;;;7.85;3.35;;;;;;;14.54;54.55;101927.94;5083908;28;20057;-60
2021/12/12 00:34:21;;;;;;;7.97;3.25;;;;;;;14.54;54.44;101923.53;5084378;28;20021;-60
2021/12/12 00:36:46;;;;;;;7.18;3.60;;;;;;;14.54;54.38;101917.47;5082222;28;20093;-59
2021/12/12 00:39:19;;;;;;;8.60;3.20;;;;;;;14.52;54.48;101923.59;5083160;28;20028;-59
2021/12/12 00:41:50;;;;;;;8.32;3.60;;;;;;;14.48;54.42;101916.66;5084522;28;20062;-60
2021/12/12 00:44:16;;;;;;;5.43;2.90;;;;;;;14.47;54.30;101911.47;5083908;28;20020;-60
2021/12/12 00:46:44;;;;;;;6.97;3.20;;;;;;;14.52;54.29;101920.13;5082358;28;20030;-61
2021/12/12 00:49:10;;;;;;;7.55;3.30;;;;;;;14.51;54.62;101915.78;5083424;28;20589;-60
2021/12/12 00:51:39;;;;;;;8.15;3.47;;;;;;;14.51;54.04;101919.25;5083003;28;20032;-59
2021/12/12 00:54:08;;;;;;;7.55;3.30;;;;;;;14.52;54.75;101918.34;5082089;28;20028;-60
2021/12/12 00:56:34;;;;;;;8.00;3.28;;;;;;;14.50;54.19;101914.06;5082955;28;20036;-60
2021/12/12 00:59:00;;;;;;;7.67;3.13;;;;;;;14.50;54.50;101908.81;5084324;28;20032;-60
2021/12/12 01:01:36;;;;;;;7.95;3.10;;;;;;;14.48;54.50;101895.78;5081993;28;20098;-61
2021/12/12 01:04:10;;;;;;;;;;;;;;;14.60;54.28;101899.09;5082047;28;20029;-59
2021/12/12 01:06:36;;;;;;;7.13;3.05;;;;;;;14.50;54.75;101899.22;5082234;28;20006;-61
2021/12/12 01:09:09;;;;;;;7.40;2.90;;;;;;;14.50;54.74;101891.38;5083961;28;20498;-61
2021/12/12 01:11:39;;;;;;;7.15;3.15;;;;;;;14.41;54.32;101885.47;5083269;28;20047;-60
2021/12/12 01:14:08;;;;;;;7.65;3.15;;;;;;;14.44;54.86;101891.50;5081315;28;20496;-60
2021/12/12 01:16:44;;;;;;;6.75;3.03;;;;;;;14.49;54.56;101899.25;5082406;28;20023;-57
2021/12/12 01:19:22;;;;;;;6.63;2.80;;;;;;;14.42;54.18;101892.38;5082317;28;20474;-60
2021/12/12 01:21:53;;;;;;;7.85;3.22;;;;;;;14.47;55.02;101898.41;5082214;28;20083;-60
2021/12/12 01:24:24;;;;;;;8.38;2.92;;;;;;;14.43;54.55;101896.72;5081886;28;20059;-60
2021/12/12 01:26:51;;;;;;;8.10;3.17;;;;;;;14.46;54.48;101899.28;5082211;28;20025;-59
2021/12/12 01:29:17;;;;;;;6.57;2.97;;;;;;;14.40;54.85;101896.78;5082122;28;20039;-61
2021/12/12 01:31:48;;;;;;;5.83;3.00;;;;;;;14.44;54.54;101899.34;5083577;28;20032;-60
2021/12/12 01:34:18;;;;;;;6.70;2.97;;;;;;;14.44;54.57;101901.06;5082795;28;20096;-60
2021/12/12 01:39:20;;;;;;;5.78;2.92;;;;;;;14.32;54.40;101882.06;5083506;28;20028;-59
2021/12/12 01:41:54;;;;;;;6.50;2.97;;;;;;;14.45;54.78;101894.97;5081746;28;20135;-60
2021/12/12 01:44:34;;;;;;;7.43;2.92;;;;;;;14.44;54.80;101898.44;5081618;28;20071;-60
2021/12/12 01:47:29;;;;;;;7.60;3.22;;;;;;;14.44;54.75;101895.84;5083041;28;20036;-60
2021/12/12 01:49:59;;;;;;;5.75;2.97;;;;;;;14.40;54.82;101894.19;5068961;28;20048;-60
2021/12/12 01:52:27;;;;;;;5.30;3.05;;;;;;;14.42;54.92;101902.81;5081228;28;20031;-59
2021/12/12 01:54:59;;;;;;;7.75;3.00;;;;;;;14.40;54.83;101900.25;5082103;28;20054;-59
2021/12/12 01:57:30;;;;;;;7.20;3.10;;;;;;;14.39;54.71;101898.53;5083661;28;20050;-60
2021/12/12 01:59:58;;;;;;;6.80;2.88;;;;;;;14.39;54.73;101887.22;5083023;28;20033;-60
2021/12/12 02:02:31;;;;;;;6.15;2.90;;;;;;;14.32;54.88;101881.22;5080828;28;20024;-60
2021/12/12 02:05:02;;;;;;;6.55;2.92;;;;;;;14.43;54.25;101894.09;5085058;28;20024;-60
2021/12/12 02:07:32;;;;;;;7.57;2.83;;;;;;;14.37;54.46;101889.84;5086671;28;20020;-59
2021/12/12 02:10:00;;;;;;;7.00;2.78;;;;;;;14.38;55.16;101893.34;5085559;28;20024;-60
2021/12/12 02:12:26;;;;;;;6.38;2.72;;;;;;;14.39;54.80;101887.22;5084996;28;20025;-60
2021/12/12 02:14:53;;;;;;;6.25;2.80;;;;;;;14.41;54.47;101891.53;5086115;28;20031;-59
2021/12/12 02:17:30;;;;;;;5.28;2.70;;;;;;;14.35;54.61;101879.44;5086865;28;20127;-60
2021/12/12 02:20:12;;;;;;;6.38;2.80;;;;;;;14.40;54.54;101888.97;5086740;28;20359;-60
2021/12/12 02:22:58;;;;;;;6.75;2.97;;;;;;;14.33;54.88;101878.59;5081575;28;20028;-60
2021/12/12 02:36:25;;;;;;;7.85;2.88;;;;;;;14.40;54.79;101891.56;5076039;28;20044;-59
2021/12/12 02:38:54;;;;;;;6.00;3.05;;;;;;;14.36;54.78;101877.66;5075670;28;20064;-59
2021/12/12 02:41:21;;;;;;;8.40;2.90;;;;;;;14.37;54.75;101868.94;5076007;28;20036;-60
2021/12/12 02:43:56;;;;;;;6.35;2.63;;;;;;;14.36;54.63;101860.25;5076123;28;20043;-60
2021/12/12 02:46:28;;;;;;;7.50;3.00;;;;;;;14.38;54.64;101856.78;5075823;28;20029;-59
2021/12/12 02:49:03;;;;;;;6.32;2.70;;;;;;;14.36;54.34;101849.81;5075635;28;20024;-59
2021/12/12 02:51:28;;;;;;;8.02;2.80;;;;;;;14.35;54.80;101849.84;5075657;28;20024;-59
2021/12/12 02:53:56;;;;;;;7.40;2.90;;;;;;;14.40;54.67;101849.78;5075883;28;20069;-60
2021/12/12 02:56:44;;;;;;;4.38;2.60;;;;;;;14.35;54.79;101842.03;5075763;28;20466;-60
2021/12/12 02:59:13;;;;;;;6.28;2.80;;;;;;;14.35;54.90;101840.25;5075326;28;20050;-59
2021/12/12 03:01:47;;;;;;;6.57;2.78;;;;;;;14.36;54.92;101848.94;5075623;28;20078;-60
2021/12/12 03:04:13;;;;;;;4.47;2.75;;;;;;;14.38;54.73;101844.56;5075238;28;20028;-60
2021/12/12 03:06:42;;;;;;;7.25;3.13;;;;;;;14.39;55.08;101850.66;5075525;28;20382;-60
2021/12/12 03:09:19;;;;;;;5.30;2.70;;;;;;;14.39;54.56;101843.69;5075193;28;20048;-60
2021/12/12 03:11:46;;;;;;;6.22;2.58;;;;;;;14.35;54.54;101840.25;5075393;28;20040;-59
2021/12/12 03:14:12;;;;;;;4.10;2.70;;;;;;;14.38;54.77;101844.56;5075026;28;20078;-59
2021/12/12 03:16:38;;;;;;;6.53;2.83;;;;;;;14.32;54.68;101842.91;5074932;28;20466;-59
2021/12/12 03:19:06;;;;;;;6.85;3.03;;;;;;;14.39;55.25;101841.06;5075234;28;20032;-60
2021/12/12 03:21:37;;;;;;;6.32;2.65;;;;;;;14.38;54.97;101848.94;5075452;28;20417;-60
2021/12/12 03:24:08;;;;;;;9.02;3.10;;;;;;;14.37;54.89;101832.38;5075082;28;20078;-60
2021/12/12 03:26:35;;;;;;;5.35;2.75;;;;;;;14.34;54.66;101828.09;5074814;28;20064;-59
2021/12/12 03:29:01;;;;;;;8.02;2.95;;;;;;;14.39;54.85;101829.78;5074978;28;20082;-59
2021/12/12 03:31:32;;;;;;;7.68;2.45;;;;;;;14.32;54.56;101800.28;5075140;28;20055;-60
2021/12/12 03:34:00;;;;;;;5.50;2.60;;;;;;;14.39;54.73;101806.28;5075237;28;20033;-61
2021/12/12 03:36:26;;;;;;;6.45;2.60;;;;;;;14.37;54.72;101811.50;5074693;28;20562;-59
2021/12/12 03:38:57;;;;;;;5.32;2.50;;;;;;;14.41;54.57;101809.72;5074886;28;20036;-61
2021/12/12 03:41:28;;;;;;;4.97;2.63;;;;;;;14.40;54.79;101811.47;5074873;28;20381;-60
2021/12/12 03:43:58;;;;;;;6.03;2.33;;;;;;;14.40;54.41;101814.06;5074670;28;20035;-60
2021/12/12 03:46:23;;;;;;;5.88;2.65;;;;;;;14.34;54.88;101798.50;5073508;28;20107;-60
2021/12/12 03:48:49;;;;;;;6.57;2.70;;;;;;;14.40;54.96;101811.47;5074762;28;20119;-62
2021/12/12 03:51:18;;;;;;;5.60;2.63;;;;;;;14.42;54.92;101816.66;5074206;28;20372;-60
2021/12/12 03:53:45;;;;;;;6.45;2.70;;;;;;;14.38;54.96;101809.75;5074639;28;20467;-60
2021/12/12 03:56:13;;;;;;;6.75;2.90;;;;;;;14.41;55.04;101809.72;5074187;28;20087;-60
2021/12/12 03:58:39;;;;;;;6.65;2.78;;;;;;;14.35;54.75;101803.69;5074309;28;20032;-60
2021/12/12 04:01:19;;;;;;;5.43;2.53;;;;;;;14.41;54.62;101812.34;5074548;28;20355;-60
2021/12/12 04:03:46;;;;;;;6.07;2.50;;;;;;;14.39;54.82;101817.56;5074479;28;20027;-59
2021/12/12 04:06:13;;;;;;;;;;;;;;;14.50;54.77;101817.41;5074735;28;20111;-59
2021/12/12 04:08:43;;;;;;;5.88;2.70;;;;;;;14.38;54.65;101809.75;5074295;28;19912;-60
2021/12/12 04:11:40;;;;;;;8.05;2.80;;;;;;;14.40;54.90;101814.06;5074195;28;20029;-60
2021/12/12 04:14:08;;;;;;;7.38;2.55;;;;;;;14.41;54.97;101828.00;5072837;28;20032;-60
2021/12/12 04:16:35;;;;;;;5.15;2.70;;;;;;;14.35;55.05;101816.75;5074418;28;20370;-60
2021/12/12 04:19:03;;;;;;;6.50;2.78;;;;;;;14.30;54.87;101812.50;5074149;28;20025;-60
2021/12/12 04:21:29;;;;;;;5.10;2.50;;;;;;;14.36;54.97;101815.00;5074102;28;20029;-60
2021/12/12 04:23:56;;;;;;;5.13;2.67;;;;;;;14.36;54.66;101815.00;5073811;28;20036;-61
2021/12/12 04:26:30;;;;;;;7.95;2.90;;;;;;;14.39;54.70;101817.56;5073354;28;20255;-60
2021/12/12 04:29:07;;;;;;;7.65;2.60;;;;;;;14.34;54.94;101817.63;5073853;28;20032;-61
2021/12/12 04:31:34;;;;;;;6.85;2.40;;;;;;;14.39;54.67;101824.56;5073696;28;20032;-60
2021/12/12 04:34:01;;;;;;;6.50;2.58;;;;;;;14.37;54.75;101811.50;5073376;28;20044;-60
2021/12/12 04:36:30;;;;;;;7.07;2.97;;;;;;;14.41;54.80;101822.78;5073597;28;20383;-60
2021/12/12 04:39:10;;;;;;;5.20;2.40;;;;;;;14.40;54.65;101810.59;5072639;28;20037;-60
2021/12/12 04:41:36;;;;;;;5.40;2.58;;;;;;;14.40;54.77;101813.22;5073535;28;20532;-60
2021/12/12 04:44:03;;;;;;;5.63;2.55;;;;;;;14.40;54.83;101810.59;5073579;28;20060;-60
2021/12/12 04:49:54;;;;;;;5.70;2.60;;;;;;;14.39;54.87;101819.31;5073158;28;20455;-61
2021/12/12 04:52:10;;;;;;;5.72;2.55;;;;;;;14.42;54.78;101824.47;5073437;28;20105;-60
2021/12/12 04:54:45;;;;;;;4.25;2.33;;;;;;;14.29;54.85;101802.94;5072246;28;20052;-60
2021/12/12 04:57:23;;;;;;;5.13;2.50;;;;;;;14.41;54.81;101828.84;5073110;28;20517;-61
2021/12/12 04:59:56;;;;;;;3.20;2.30;;;;;;;14.40;54.58;101828.88;5073420;28;20082;-60
2021/12/12 05:02:40;;;;;;;5.32;2.50;;;;;;;14.41;54.88;101821.03;5073246;28;20071;-59
2021/12/12 05:05:11;;;;;;;6.75;2.65;;;;;;;14.40;54.50;101829.75;5073359;28;20020;-59
2021/12/12 05:07:57;;;;;;;4.65;2.45;;;;;;;14.42;54.71;101838.41;5073620;28;20028;-59
2021/12/12 05:10:38;;;;;;;4.53;2.40;;;;;;;14.40;54.93;101836.72;5073387;28;20504;-61
2021/12/12 05:13:16;;;;;;;5.43;2.40;;;;;;;14.39;54.88;101840.22;5073083;28;20040;-59
2021/12/12 05:15:48;;;;;;;3.90;2.17;;;;;;;14.34;54.74;101833.31;5073214;28;20103;-60
2021/12/12 05:18:26;;;;;;;4.60;2.60;;;;;;;14.38;54.75;101843.72;5073342;28;20520;-60
2021/12/12 05:21:12;;;;;;;3.67;2.30;;;;;;;14.37;54.46;101842.84;5073067;28;20032;-55
2021/12/12 05:23:43;;;;;;;5.35;2.38;;;;;;;14.35;54.64;101844.63;5073108;28;20056;-60
2021/12/12 05:26:18;;;;;;;4.28;2.30;;;;;;;14.40;54.67;101844.56;5072913;28;20051;-60
2021/12/12 05:29:13;;;;;;;4.65;2.40;;;;;;;14.41;54.86;101839.31;5073031;28;20039;-60
2021/12/12 05:31:45;;;;;;;5.07;2.17;;;;;;;14.33;54.77;101828.97;5071788;28;20123;-60
2021/12/12 05:34:11;;;;;;;4.78;2.20;;;;;;;14.38;54.45;101835.88;5072947;28;20529;-59
2021/12/12 05:36:37;;;;;;;4.55;2.30;;;;;;;14.38;55.02;101835.88;5072838;28;20021;-59
2021/12/12 05:39:04;;;;;;;4.10;2.33;;;;;;;14.35;54.51;101836.78;5072905;28;20035;-60
2021/12/12 05:41:30;;;;;;;3.67;2.20;;;;;;;14.33;54.59;101841.19;5072907;28;20278;-60
2021/12/12 05:43:57;;;;;;;6.55;2.67;;;;;;;14.35;54.64;101844.63;5072917;28;20029;-60
2021/12/12 05:46:23;;;;;;;3.50;2.25;;;;;;;14.37;54.83;101845.44;5072760;28;20040;-60
2021/12/12 05:48:51;;;;;;;5.55;2.30;;;;;;;14.32;54.58;101847.28;5072412;28;20058;-60
2021/12/12 05:51:18;;;;;;;3.10;2.15;;;;;;;14.35;54.58;101858.53;5072569;28;20064;-59
2021/12/12 05:53:44;;;;;;;4.47;2.30;;;;;;;14.35;54.57;101852.47;5072569;28;20029;-60
2021/12/12 05:56:10;;;;;;;5.13;2.20;;;;;;;14.39;54.54;101855.88;5072855;28;20079;-60
2021/12/12 05:58:37;;;;;;;3.70;2.13;;;;;;;14.40;54.87;101857.63;5072531;28;20054;-59
2021/12/12 06:01:08;;;;;;;4.88;2.33;;;;;;;14.34;54.66;101848.97;5072462;28;20490;-59
2021/12/12 06:03:37;;;;;;;3.97;2.20;;;;;;;14.33;54.50;101856.84;5072767;28;20028;-60
2021/12/12 06:06:07;;;;;;;3.38;1.90;;;;;;;14.34;54.61;101848.13;5082447;28;20390;-60
2021/12/12 06:08:34;;;;;;;4.43;2.10;;;;;;;14.33;54.84;101851.63;5092685;28;20454;-59
2021/12/12 06:11:00;;;;;;;5.07;2.03;;;;;;;14.38;54.71;101867.22;5092583;28;20040;-60
2021/12/12 06:13:27;;;;;;;5.67;2.20;;;;;;;14.35;54.61;101871.59;5092761;28;20036;-61
2021/12/12 06:15:54;;;;;;;2.95;2.00;;;;;;;14.34;54.83;101877.69;5092466;28;20376;-59
2021/12/12 06:18:22;;;;;;;3.20;2.10;;;;;;;14.36;54.65;101882.88;5092821;28;20036;-60
2021/12/12 06:20:48;;;;;;;3.85;1.92;;;;;;;14.34;54.72;101888.16;5092794;28;20039;-59
2021/12/12 06:23:16;;;;;;;4.47;2.20;;;;;;;14.24;55.06;101865.66;5092843;28;20032;-60
2021/12/12 06:25:42;;;;;;;3.90;2.33;;;;;;;14.30;54.71;101873.41;5092755;28;20028;-60
2021/12/12 06:28:13;;;;;;;;;;;;;;;14.44;54.58;101880.16;5092993;28;20086;-60
2021/12/12 06:30:39;;;;;;;2.88;2.10;;;;;;;14.30;54.66;101867.31;5092561;28;19912;-60
2021/12/12 06:33:05;;;;;;;4.20;2.03;;;;;;;14.35;54.73;101875.97;5092568;28;20104;-59
2021/12/12 06:35:31;;;;;;;4.53;2.03;;;;;;;14.34;54.43;101867.25;5092709;28;20462;-60
2021/12/12 06:38:03;;;;;;;4.32;2.05;;;;;;;14.34;54.76;101869.88;5092431;28;20050;-61
2021/12/12 06:40:30;;;;;;;2.75;2.00;;;;;;;14.34;54.83;101875.09;5092523;28;20107;-59
2021/12/12 06:42:58;;;;;;;2.45;1.90;;;;;;;14.33;55.11;101870.75;5092537;28;20044;-61
2021/12/12 06:45:23;;;;;;;3.85;2.22;;;;;;;14.35;54.89;101875.97;5079527;28;20519;-60
2021/12/12 06:47:49;;;;;;;3.13;2.00;;;;;;;14.29;54.70;101876.03;5071586;28;20037;-59
2021/12/12 06:50:15;;;;;;;3.93;2.00;;;;;;;14.27;55.09;101878.69;5073814;28;20060;-59
2021/12/12 06:52:40;;;;;;;3.57;2.00;;;;;;;14.31;54.97;101880.34;5074241;28;20374;-60
2021/12/12 06:55:09;;;;;;;3.83;1.90;;;;;;;14.29;54.73;101874.31;5073924;28;20029;-60
2021/12/12 06:57:36;;;;;;;4.25;2.28;;;;;;;14.31;54.77;101879.50;5073520;28;20122;-61
2021/12/12 07:00:06;;;;;;;3.47;2.10;;;;;;;14.29;54.76;101884.75;5073916;28;20040;-60
2021/12/12 07:02:31;;;;;;;2.53;1.88;;;;;;;14.32;55.05;101891.66;5074311;28;20078;-60
2021/12/12 07:04:57;;;;;;;3.13;2.10;;;;;;;14.28;54.87;101882.16;5074035;28;20028;-59
2021/12/12 07:07:25;;;;;;;3.20;1.97;;;;;;;14.32;54.78;101886.44;5073867;28;20119;-59
2021/12/12 07:09:51;;;;;;;2.72;2.00;;;;;;;14.32;54.68;101887.28;5073866;28;20040;-60
2021/12/12 07:12:22;;;;;;;3.70;2.28;;;;;;;14.31;54.97;101877.72;5073566;28;20035;-60
2021/12/12 07:14:48;;;;;;;3.00;1.88;;;;;;;14.31;54.86;101877.72;5073578;28;20032;-60
2021/12/12 07:17:15;;;;;;;2.65;2.20;;;;;;;14.31;54.79;101879.50;5073840;28;20111;-60
2021/12/12 07:19:41;;;;;;;5.00;2.13;;;;;;;14.29;54.92;101878.66;5073840;28;20415;-59
2021/12/12 07:22:07;;;;;;;3.15;2.13;;;;;;;14.25;54.97;101888.28;5073047;28;20162;-61
2021/12/12 07:24:33;;;;;;;;;;;;;;;14.39;54.76;101893.31;5075021;28;20082;-60
2021/12/12 07:26:59;;;;;;;2.63;2.13;;;;;;;14.31;54.83;101884.72;5073813;28;20344;-60
2021/12/12 07:29:26;;;;;;;3.77;2.10;;;;;;;14.27;54.68;101881.28;5073696;28;20104;-60
2021/12/12 07:31:52;;;;;;;2.75;2.00;;;;;;;14.28;54.79;101883.03;5074861;28;20466;-60
2021/12/12 07:34:18;;;;;;;3.80;2.00;;;;;;;14.30;54.79;101881.22;5075322;28;20056;-60
2021/12/12 07:36:48;;;;;;;2.07;1.60;;;;;;;14.29;54.72;101884.75;5075202;28;20037;-60
2021/12/12 07:39:16;;;;;;;2.97;1.90;;;;;;;14.31;55.14;101898.63;5074761;28;20383;-60
2021/12/12 07:41:45;;;;;;;2.05;1.60;;;;;;;14.30;55.36;101894.28;5085657;28;20028;-60
2021/12/12 07:44:13;;;;;;;3.60;2.00;;;;;;;14.29;54.63;101900.41;5095163;28;20036;-60
2021/12/12 07:46:40;;;;;;;2.58;1.90;;;;;;;14.25;55.17;101895.22;5095048;28;20102;-60
2021/12/12 07:49:06;;;;;;;1.60;1.50;;;;;;;14.23;55.19;101884.81;5095008;28;20032;-60
2021/12/12 07:51:33;;;;;;;2.67;1.90;;;;;;;14.30;54.84;101898.66;5093546;28;20450;-60
2021/12/12 07:54:00;;;;;;;;;;;;;;;14.38;54.69;101902.00;5095377;28;20482;-60
2021/12/12 07:56:29;;;;;;;2.92;1.85;;;;;;;14.30;55.02;101903.88;5087795;28;19919;-60
2021/12/12 07:58:58;;;;;;;2.13;1.80;;;;;;;14.26;54.91;101897.84;5092781;28;20057;-60
2021/12/12 08:01:25;;;;;;;2.58;2.05;;;;;;;14.29;55.01;101908.25;5073482;28;20074;-60
2021/12/12 08:03:56;;;;;;;2.70;1.85;;;;;;;14.26;54.83;101912.63;5074314;28;20394;-60
2021/12/12 08:06:23;;;;;;;2.40;2.00;;;;;;;14.28;54.75;101921.31;5073871;28;20048;-60
2021/12/12 08:08:50;;;;;;;2.75;1.90;;;;;;;14.29;54.91;101920.44;5073922;28;20025;-59
2021/12/12 08:11:23;;;;;;;2.97;1.90;;;;;;;14.23;55.06;101905.72;5083555;28;20032;-60
2021/12/12 08:13:50;;;;;;;2.80;1.95;;;;;;;14.26;55.52;101923.06;5094771;28;20024;-59
2021/12/12 08:16:17;;;;;;;3.63;1.95;;;;;;;14.27;55.19;101930.91;5094423;28;20032;-60
2021/12/12 08:18:44;;;;;;;2.30;2.00;;;;;;;14.25;55.40;101924.84;5094391;28;20024;-60
2021/12/12 08:21:09;;;;;;;;;;;;;;;14.39;55.31;101929.84;5094940;28;20032;-60
2021/12/12 08:23:35;;;;;;;2.83;2.00;;;;;;;14.31;55.49;101935.19;5093915;28;20263;-60
2021/12/12 08:26:02;;;;;;;3.72;1.80;;;;;;;14.28;55.69;101926.53;5094370;28;20031;-60
2021/12/12 08:28:30;;;;;;;3.13;2.10;;;;;;;14.30;55.44;101938.66;5094428;28;20035;-61
2021/12/12 08:30:56;;;;;;;2.33;1.90;;;;;;;14.28;55.70;101944.81;5094049;28;20043;-61
2021/12/12 08:33:22;;;;;;;3.05;2.00;;;;;;;14.33;55.56;101950.84;5093993;28;20115;-60
2021/12/12 08:35:48;;;;;;;1.98;1.65;;;;;;;14.32;55.57;101959.56;5093900;28;20111;-60
2021/12/12 08:38:15;;;;;;;3.08;1.90;;;;;;;14.32;55.74;101946.50;5093869;28;20028;-60
2021/12/12 08:40:47;;;;;;;3.97;1.80;;;;;;;14.31;55.77;101947.38;5094038;28;20385;-60
2021/12/12 08:43:15;;;;;;;3.78;2.00;;;;;;;14.32;55.27;101956.94;5093909;28;20027;-60
2021/12/12 08:45:46;;;;;;;4.32;2.00;;;;;;;14.31;55.44;101958.69;5094029;28;20031;-60
2021/12/12 08:48:16;;;;;;;3.53;2.20;;;;;;;14.28;55.48;101953.53;5093734;28;20111;-60
2021/12/12 08:50:43;;;;;;;3.80;2.10;;;;;;;14.29;55.35;101959.59;5079615;28;20032;-58
2021/12/12 08:53:09;;;;;;;6.65;2.25;;;;;;;14.32;55.77;101968.25;5073658;28;20094;-60
2021/12/12 08:55:38;;;;;;;5.05;2.20;;;;;;;14.26;55.75;101955.28;5073298;28;20028;-60
2021/12/12 08:58:17;;;;;;;3.33;1.98;;;;;;;14.28;55.67;101963.09;5073551;28;20073;-59
2021/12/12 09:00:50;;;;;;;4.75;2.55;;;;;;;14.30;55.89;101966.53;5077609;28;20129;-59
2021/12/12 09:03:22;;;;;;;6.22;2.88;;;;;;;14.29;55.88;101964.81;5085282;28;20060;-59
2021/12/12 09:05:48;;;;;;;7.03;2.80;;;;;;;14.22;56.04;101958.81;5083816;28;20047;-60
2021/12/12 09:08:44;;;;;;;6.90;2.90;;;;;;;14.31;55.82;101970.88;5080944;28;20024;-60
2021/12/12 09:11:26;;;;;;;7.75;2.85;;;;;;;14.26;56.20;101976.19;5089911;28;20048;-60
2021/12/12 09:14:27;;;;;;;5.28;2.70;;;;;;;14.31;56.02;101984.78;5092949;28;20043;-60
2021/12/12 09:17:03;;;;;;;8.27;3.05;;;;;;;14.23;56.16;101981.44;5083258;28;20531;-59
2021/12/12 09:19:42;;;;;;;6.15;2.95;;;;;;;14.29;55.90;101989.19;5082180;28;20459;-60
2021/12/12 09:22:18;;;;;;;8.75;3.20;;;;;;;14.27;56.10;101996.19;5078058;28;20426;-60
2021/12/12 09:24:44;;;;;;;6.65;2.80;;;;;;;14.28;56.58;101999.66;5073168;28;20028;-60
2021/12/12 09:27:18;;;;;;;6.88;3.22;;;;;;;14.28;56.28;102005.75;5073177;28;20115;-60
2021/12/12 09:30:08;;;;;;;6.97;2.95;;;;;;;14.28;56.24;101999.66;5075462;28;20440;-60
2021/12/12 09:32:41;;;;;;;6.07;2.95;;;;;;;14.27;56.38;102000.53;5091798;28;20032;-59
2021/12/12 09:35:12;;;;;;;6.28;3.00;;;;;;;14.31;56.60;102013.53;5091299;28;20077;-58
2021/12/12 09:37:52;;;;;;;7.03;2.90;;;;;;;14.35;56.51;102017.84;5077330;28;20066;-60
2021/12/12 09:40:36;;;;;;;5.22;2.88;;;;;;;14.36;56.49;102018.69;5072486;28;20033;-60
2021/12/12 09:43:10;;;;;;;6.80;3.10;;;;;;;14.38;56.50;102026.53;5072298;28;20067;-60
2021/12/12 09:45:54;;;;;;;7.43;3.00;;;;;;;14.31;56.59;102012.66;5072746;28;20051;-60
2021/12/12 09:52:13;;;;;;;6.18;3.20;;;;;;;14.43;56.24;102028.19;5072898;28;20073;-59
2021/12/12 09:54:51;;;;;;;6.38;2.97;;;;;;;14.36;56.18;102019.56;5073055;28;20429;-60
2021/12/12 09:57:26;;;;;;;8.82;3.50;;;;;;;14.37;56.35;102015.19;5072819;28;20063;-60
2021/12/12 10:00:16;;;;;;;8.65;3.60;;;;;;;14.42;56.49;102016.00;5072635;28;20037;-60
2021/12/12 10:02:41;;;;;;;8.88;3.40;;;;;;;14.41;55.96;102016.91;5072981;28;20035;-60
2021/12/12 10:05:12;;;;;;;8.87;3.10;;;;;;;14.42;56.50;102023.84;5077906;28;20021;-60
2021/12/12 10:07:59;;;;;;;8.27;3.13;;;;;;;14.39;56.54;102016.03;5080123;28;20025;-60
2021/12/12 10:10:46;;;;;;;8.13;3.03;;;;;;;14.32;56.30;102001.34;5079681;28;20028;-60
2021/12/12 10:13:24;;;;;;;7.95;3.00;;;;;;;14.43;56.39;102019.47;5077402;28;20459;-60
2021/12/12 10:15:59;;;;;;;9.10;3.03;;;;;;;14.42;56.51;102012.53;5080087;28;20039;-60
2021/12/12 10:18:43;;;;;;;6.53;3.00;;;;;;;14.43;56.42;102019.47;5082772;28;20031;-59
2021/12/12 10:21:13;;;;;;;9.10;3.03;;;;;;;14.41;56.26;102021.28;5081306;28;20024;-60
2021/12/12 10:24:01;;;;;;;6.68;2.92;;;;;;;14.42;56.13;102015.13;5081697;28;20507;-60
2021/12/12 10:26:43;;;;;;;9.23;3.00;;;;;;;14.43;56.53;102022.09;5086581;28;20023;-60
2021/12/12 10:29:15;;;;;;;5.80;2.67;;;;;;;14.41;56.62;102022.13;5080530;28;20046;-60
2021/12/12 10:31:54;;;;;;;7.18;2.65;;;;;;;14.38;56.11;102016.06;5081923;28;20394;-59
2021/12/12 10:34:36;;;;;;;6.93;2.80;;;;;;;14.40;56.21;102025.59;5085347;28;20082;-58
2021/12/12 10:37:32;;;;;;;7.07;3.00;;;;;;;14.43;56.50;102019.47;5078839;28;20032;-60
2021/12/12 10:40:39;;;;;;;6.63;2.90;;;;;;;14.43;56.34;102020.34;5084978;28;20086;-60
2021/12/12 10:43:09;;;;;;;5.32;2.60;;;;;;;14.38;56.55;102022.16;5063926;28;20032;-59
2021/12/12 10:45:49;;;;;;;6.63;2.78;;;;;;;14.33;56.51;102013.53;5053858;28;20071;-59
2021/12/12 10:48:18;;;;;;;6.07;3.00;;;;;;;14.38;56.48;102024.75;5080926;28;20021;-59
2021/12/12 10:50:55;;;;;;;6.25;2.80;;;;;;;14.36;56.64;102018.69;5082066;28;20024;-58
2021/12/12 10:53:30;;;;;;;4.97;2.75;;;;;;;14.40;56.22;102022.16;5078719;28;20031;-57
2021/12/12 10:56:17;;;;;;;6.37;2.90;;;;;;;14.44;56.40;102024.69;5079680;28;20550;-59
2021/12/12 10:58:46;;;;;;;5.75;2.72;;;;;;;14.41;56.23;102021.28;5079722;28;20274;-60
2021/12/12 11:01:16;;;;;;;6.53;2.90;;;;;;;14.47;56.23;102029.00;5078735;28;20016;-58
2021/12/12 11:03:49;;;;;;;6.53;2.75;;;;;;;14.48;55.69;102030.75;5071030;28;20033;-59
2021/12/12 11:06:22;;;;;;;7.18;2.65;;;;;;;14.46;56.10;102015.09;5076575;28;20063;-59
2021/12/12 11:08:58;;;;;;;5.57;2.40;;;;;;;14.52;56.14;102025.47;5079588;28;20110;-59
2021/12/12 11:11:25;;;;;;;;;;;;;;;14.63;56.03;102027.94;5078331;28;20073;-60
2021/12/12 11:14:05;;;;;;;5.22;2.65;;;;;;;14.52;56.39;102008.94;5081264;28;19919;-58
2021/12/12 11:16:37;;;;;;;7.05;2.60;;;;;;;14.56;56.33;102014.97;5074856;28;20111;-60
2021/12/12 11:19:14;;;;;;;6.45;2.30;;;;;;;14.61;55.63;102018.38;5079188;28;20047;-59
2021/12/12 11:21:46;;;;;;;3.78;2.30;;;;;;;14.63;55.62;102019.22;5079053;28;20129;-58
2021/12/12 11:24:21;;;;;;;4.30;2.33;;;;;;;14.64;55.46;102015.72;5079135;28;20048;-60
2021/12/12 11:27:08;;;;;;;5.32;2.45;;;;;;;14.67;55.60;102015.72;5079023;28;20133;-60
2021/12/12 11:29:41;;;;;;;4.53;2.25;;;;;;;14.65;55.60;102020.94;5076646;28;20344;-59
2021/12/12 11:32:13;;;;;;;4.90;2.42;;;;;;;14.63;55.26;102019.22;5086995;28;20040;-57
2021/12/12 11:34:43;;;;;;;5.35;2.40;;;;;;;14.64;55.52;102010.50;5076803;28;20040;-60
2021/12/12 11:37:51;;;;;;;4.45;2.38;;;;;;;14.67;56.01;102013.13;5069390;28;20123;-58
2021/12/12 11:40:22;;;;;;;3.40;2.33;;;;;;;14.56;55.40;102005.38;5058379;28;20548;-60
2021/12/12 11:43:02;;;;;;;3.20;2.25;;;;;;;14.65;55.68;102026.16;5069139;28;20471;-60
2021/12/12 11:45:38;;;;;;;3.65;2.17;;;;;;;14.65;55.25;102026.16;5057231;28;20044;-59
2021/12/12 11:48:22;;;;;;;4.65;2.50;;;;;;;14.66;55.25;102019.19;5081096;28;20032;-59
2021/12/12 11:51:01;;;;;;;3.30;2.13;;;;;;;14.67;55.55;102019.19;5077254;28;20043;-59
2021/12/12 11:53:41;;;;;;;3.45;2.40;;;;;;;14.70;55.47;102022.66;5074233;28;20038;-59
2021/12/12 11:56:24;;;;;;;3.50;2.22;;;;;;;14.64;55.53;102016.56;5081578;28;20048;-58
2021/12/12 11:59:08;;;;;;;3.15;2.20;;;;;;;14.71;55.41;102020.00;5076681;28;20578;-57
2021/12/12 12:01:51;;;;;;;2.97;2.10;;;;;;;14.67;55.42;102018.34;5081360;28;20529;-59
2021/12/12 12:04:35;;;;;;;4.82;2.40;;;;;;;14.71;55.58;102022.63;5082396;28;20067;-59
2021/12/12 12:07:22;;;;;;;4.60;2.45;;;;;;;14.71;55.64;102027.84;5082251;28;20127;-59
2021/12/12 12:10:09;;;;;;;4.47;2.60;;;;;;;14.74;55.51;102030.44;5085580;28;20024;-60